createdAt,value
2018-04-22T00:01:41.440Z,14.57
2018-04-22T00:04:09.007Z,13.20
2018-04-22T00:06:37.459Z,14.17
2018-04-22T00:09:05.021Z,14.30
2018-04-22T00:11:32.563Z,13.67
2018-04-22T00:14:00.133Z,16.47
2018-04-22T00:16:27.670Z,17.00
2018-04-22T00:18:55.235Z,14.40
2018-04-22T00:21:22.767Z,15.30
2018-04-22T00:23:51.098Z,15.53
2018-04-22T00:26:18.656Z,17.10
2018-04-22T00:28:46.187Z,15.23
2018-04-22T00:31:13.742Z,15.27
2018-04-22T00:33:41.295Z,14.30
2018-04-22T00:36:09.632Z,15.00
2018-04-22T00:38:37.968Z,16.37
2018-04-22T00:41:05.515Z,14.33
2018-04-22T00:43:33.125Z,14.33
2018-04-22T00:46:00.642Z,14.67
2018-04-22T00:48:28.212Z,14.40
2018-04-22T00:50:55.747Z,13.57
2018-04-22T00:53:23.313Z,14.63
2018-04-22T00:55:50.846Z,16.63
2018-04-22T00:58:19.174Z,16.43
2018-04-22T01:00:46.738Z,14.97
2018-04-22T01:03:14.289Z,16.10
2018-04-22T01:05:41.834Z,14.03
2018-04-22T01:08:09.379Z,15.63
2018-04-22T01:10:36.940Z,16.97
2018-04-22T01:13:04.503Z,16.73
2018-04-22T01:15:32.071Z,15.00
2018-04-22T01:17:59.628Z,14.83
2018-04-22T01:20:27.178Z,15.80
2018-04-22T01:22:54.723Z,14.30
2018-04-22T01:25:22.271Z,15.53
2018-04-22T01:27:50.578Z,16.53
2018-04-22T01:30:18.153Z,17.13
2018-04-22T01:32:45.699Z,14.43
2018-04-22T01:35:13.234Z,17.27
2018-04-22T01:37:41.556Z,16.03
2018-04-22T01:40:09.147Z,15.13
2018-04-22T01:42:36.695Z,16.20
2018-04-22T01:45:04.241Z,16.73
2018-04-22T01:47:31.824Z,19.93
2018-04-22T01:49:59.359Z,17.30
2018-04-22T01:52:26.940Z,17.58
2018-04-22T01:54:54.476Z,16.70
2018-04-22T01:57:22.046Z,17.08
2018-04-22T01:59:49.593Z,16.05
2018-04-22T02:02:17.146Z,16.23
2018-04-22T02:04:44.726Z,16.67
2018-04-22T02:07:12.274Z,18.27
2018-04-22T02:09:39.837Z,18.80
2018-04-22T02:12:07.370Z,24.37
2018-04-22T02:14:34.943Z,20.20
2018-04-22T02:17:02.490Z,19.37
2018-04-22T02:19:30.064Z,21.30
2018-04-22T02:21:57.606Z,20.95
2018-04-22T02:24:25.207Z,21.37
2018-04-22T02:26:52.729Z,21.23
2018-04-22T02:29:20.271Z,18.80
2018-04-22T02:31:47.859Z,21.83
2018-04-22T02:34:15.390Z,20.07
2018-04-22T02:36:42.959Z,20.83
2018-04-22T02:39:10.502Z,22.30
2018-04-22T02:41:38.079Z,22.42
2018-04-22T02:44:05.636Z,20.60
2018-04-22T02:46:33.185Z,18.85
2018-04-22T02:49:00.750Z,18.73
2018-04-22T02:51:28.302Z,18.98
2018-04-22T02:53:55.948Z,18.17
2018-04-22T02:56:23.494Z,19.05
2018-04-22T02:58:51.058Z,18.02
2018-04-22T03:01:18.609Z,18.45
2018-04-22T03:03:46.170Z,19.17
2018-04-22T03:06:13.710Z,18.95
2018-04-22T03:08:42.020Z,23.23
2018-04-22T03:11:09.583Z,20.33
2018-04-22T03:13:37.155Z,18.77
2018-04-22T03:16:04.738Z,16.60
2018-04-22T03:18:32.306Z,18.08
2018-04-22T03:20:59.886Z,19.30
2018-04-22T03:23:27.431Z,20.40
2018-04-22T03:25:54.999Z,19.70
2018-04-22T03:28:22.547Z,20.23
2018-04-22T03:30:50.088Z,19.73
2018-04-22T03:33:18.414Z,18.00
2018-04-22T03:35:45.955Z,17.58
2018-04-22T03:38:13.533Z,17.35
2018-04-22T03:40:41.080Z,18.52
2018-04-22T03:43:08.651Z,18.87
2018-04-22T03:45:36.188Z,21.55
2018-04-22T03:48:03.742Z,23.90
2018-04-22T03:50:31.306Z,18.62
2018-04-22T03:52:58.877Z,18.73
2018-04-22T03:55:26.421Z,19.23
2018-04-22T03:57:53.987Z,26.10
2018-04-22T04:00:21.544Z,19.48
2018-04-22T04:02:49.090Z,20.48
2018-04-22T04:05:16.667Z,21.10
2018-04-22T04:07:44.216Z,20.27
2018-04-22T04:10:11.751Z,23.48
2018-04-22T04:12:40.084Z,16.65
2018-04-22T04:15:07.628Z,21.62
2018-04-22T04:17:35.956Z,19.27
2018-04-22T04:20:15.348Z,20.35
2018-04-22T04:22:45.527Z,18.75
2018-04-22T04:25:33.785Z,17.77
2018-04-22T04:28:01.423Z,20.80
2018-04-22T04:30:28.975Z,19.00
2018-04-22T04:32:56.536Z,20.73
2018-04-22T04:35:24.994Z,18.70
2018-04-22T04:37:52.554Z,17.45
2018-04-22T04:40:20.110Z,17.08
2018-04-22T04:42:47.655Z,18.52
2018-04-22T04:45:15.982Z,16.50
2018-04-22T04:47:43.564Z,18.40
2018-04-22T04:50:11.156Z,18.42
2018-04-22T04:52:39.479Z,18.37
2018-04-22T04:55:07.029Z,16.55
2018-04-22T04:57:34.704Z,18.95
2018-04-22T05:00:02.263Z,17.58
2018-04-22T05:02:29.826Z,21.45
2018-04-22T05:04:57.378Z,19.27
2018-04-22T05:07:24.914Z,19.17
2018-04-22T05:09:52.496Z,15.73
2018-04-22T05:12:20.038Z,18.55
2018-04-22T05:14:47.603Z,19.02
2018-04-22T05:17:15.155Z,17.50
2018-04-22T05:19:42.728Z,18.48
2018-04-22T05:22:10.293Z,17.98
2018-04-22T05:24:37.853Z,16.17
2018-04-22T05:27:05.406Z,21.00
2018-04-22T05:29:32.970Z,16.90
2018-04-22T05:32:00.516Z,16.95
2018-04-22T05:34:28.063Z,17.58
2018-04-22T05:36:55.718Z,17.95
2018-04-22T05:39:24.040Z,17.05
2018-04-22T05:41:51.652Z,17.80
2018-04-22T05:44:19.162Z,16.90
2018-04-22T05:46:46.962Z,18.20
2018-04-22T05:49:14.681Z,16.40
2018-04-22T05:51:43.363Z,17.37
2018-04-22T05:54:11.074Z,16.70
2018-04-22T05:56:39.504Z,16.63
2018-04-22T05:59:07.269Z,17.83
2018-04-22T06:01:34.872Z,17.47
2018-04-22T06:04:02.800Z,17.70
2018-04-22T06:06:30.676Z,16.50
2018-04-22T06:08:58.437Z,16.53
2018-04-22T06:11:26.101Z,15.13
2018-04-22T06:13:53.668Z,15.20
2018-04-22T06:16:21.415Z,15.03
2018-04-22T06:18:48.966Z,15.10
2018-04-22T06:21:17.366Z,13.50
2018-04-22T06:23:45.058Z,13.40
2018-04-22T06:26:12.611Z,13.80
2018-04-22T06:28:40.945Z,15.23
2018-04-22T06:31:08.494Z,11.17
2018-04-22T06:33:36.112Z,10.73
2018-04-22T06:36:03.639Z,11.37
2018-04-22T06:38:31.171Z,11.07
2018-04-22T06:40:58.973Z,12.30
2018-04-22T06:43:26.729Z,10.30
2018-04-22T06:45:54.503Z,10.20
2018-04-22T06:48:22.038Z,9.93
2018-04-22T06:50:49.576Z,9.87
2018-04-22T06:53:17.132Z,9.53
2018-04-22T06:55:44.679Z,9.40
2018-04-22T06:58:12.238Z,10.13
2018-04-22T07:00:39.763Z,9.77
2018-04-22T07:03:07.320Z,9.20
2018-04-22T07:05:34.859Z,8.73
2018-04-22T07:08:03.179Z,7.60
2018-04-22T07:10:30.710Z,9.77
2018-04-22T07:12:59.011Z,9.30
2018-04-22T07:15:26.550Z,11.50
2018-04-22T07:17:54.096Z,9.53
2018-04-22T07:20:22.391Z,11.80
2018-04-22T07:22:49.940Z,9.40
2018-04-22T07:25:18.241Z,8.20
2018-04-22T07:27:45.787Z,8.13
2018-04-22T07:30:13.329Z,7.80
2018-04-22T07:32:41.763Z,10.67
2018-04-22T07:35:09.304Z,8.20
2018-04-22T07:37:36.839Z,6.73
2018-04-22T07:40:04.393Z,7.73
2018-04-22T07:42:32.724Z,7.10
2018-04-22T07:45:00.288Z,7.37
2018-04-22T07:47:27.830Z,6.10
2018-04-22T07:49:55.387Z,6.80
2018-04-22T07:52:22.927Z,6.20
2018-04-22T07:54:50.522Z,7.07
2018-04-22T07:57:18.067Z,6.87
2018-04-22T07:59:45.627Z,6.70
2018-04-22T08:02:13.159Z,7.77
2018-04-22T08:04:40.702Z,7.70
2018-04-22T08:07:08.281Z,6.67
2018-04-22T08:09:35.807Z,6.37
2018-04-22T08:12:03.351Z,7.50
2018-04-22T08:14:31.645Z,6.87
2018-04-22T08:16:59.179Z,6.07
2018-04-22T08:19:26.722Z,7.57
2018-04-22T08:21:54.251Z,6.43
2018-04-22T08:24:21.816Z,8.03
2018-04-22T08:26:49.344Z,7.10
2018-04-22T08:29:16.887Z,6.33
2018-04-22T08:31:45.175Z,7.07
2018-04-22T08:34:13.491Z,6.73
2018-04-22T08:36:41.020Z,5.83
2018-04-22T08:39:08.563Z,6.97
2018-04-22T08:41:36.879Z,6.20
2018-04-22T08:44:04.424Z,6.30
2018-04-22T08:46:31.972Z,6.60
2018-04-22T08:48:59.498Z,6.53
2018-04-22T08:51:27.810Z,6.90
2018-04-22T08:53:55.336Z,6.67
2018-04-22T08:56:23.635Z,5.87
2018-04-22T08:58:51.195Z,8.90
2018-04-22T09:01:18.740Z,6.13
2018-04-22T09:03:46.295Z,5.83
2018-04-22T09:06:13.847Z,7.53
2018-04-22T09:08:42.187Z,5.57
2018-04-22T09:11:09.755Z,6.00
2018-04-22T09:13:38.004Z,6.10
2018-04-22T09:16:05.534Z,6.37
2018-04-22T09:18:33.863Z,5.67
2018-04-22T09:21:01.387Z,5.70
2018-04-22T09:23:28.931Z,6.40
2018-04-22T09:25:57.233Z,6.60
2018-04-22T09:28:24.790Z,4.60
2018-04-22T09:30:53.069Z,4.97
2018-04-22T09:33:20.629Z,5.00
2018-04-22T09:35:48.170Z,5.13
2018-04-22T09:38:15.712Z,5.47
2018-04-22T09:40:44.024Z,3.90
2018-04-22T09:43:11.616Z,3.93
2018-04-22T09:45:39.167Z,4.73
2018-04-22T09:48:06.692Z,6.83
2018-04-22T09:50:34.258Z,5.23
2018-04-22T09:53:01.810Z,4.20
2018-04-22T09:55:29.377Z,4.83
2018-04-22T09:57:56.902Z,4.40
2018-04-22T10:00:30.915Z,4.03
2018-04-22T10:02:59.212Z,4.50
2018-04-22T10:05:41.668Z,3.57
2018-04-22T10:08:09.216Z,7.97
2018-04-22T10:10:36.758Z,4.63
2018-04-22T10:13:04.327Z,4.77
2018-04-22T10:15:31.852Z,5.27
2018-04-22T10:17:59.402Z,4.13
2018-04-22T10:20:27.700Z,6.30
2018-04-22T10:22:55.370Z,3.93
2018-04-22T10:25:22.912Z,5.30
2018-04-22T10:27:50.487Z,5.27
2018-04-22T10:30:18.034Z,4.87
2018-04-22T10:32:45.576Z,4.57
2018-04-22T10:35:13.118Z,4.60
2018-04-22T10:37:40.670Z,5.30
2018-04-22T10:40:09.698Z,4.70
2018-04-22T10:42:37.260Z,4.37
2018-04-22T10:45:04.827Z,4.30
2018-04-22T10:47:32.371Z,4.90
2018-04-22T10:50:00.782Z,5.50
2018-04-22T10:52:28.314Z,4.50
2018-04-22T10:54:55.858Z,4.80
2018-04-22T10:57:24.360Z,4.33
2018-04-22T10:59:52.081Z,4.80
2018-04-22T11:02:19.614Z,4.40
2018-04-22T11:04:47.161Z,5.37
2018-04-22T11:07:14.747Z,5.00
2018-04-22T11:09:42.274Z,5.03
2018-04-22T11:12:09.821Z,6.43
2018-04-22T11:14:37.354Z,5.40
2018-04-22T11:17:05.692Z,4.33
2018-04-22T11:19:33.269Z,7.03
2018-04-22T11:22:00.840Z,3.43
2018-04-22T11:24:29.134Z,3.47
2018-04-22T11:26:56.807Z,3.37
2018-04-22T11:29:24.529Z,9.13
2018-04-22T11:31:52.958Z,4.63
2018-04-22T11:34:20.545Z,5.07
2018-04-22T11:36:48.104Z,5.77
2018-04-22T11:39:15.733Z,5.17
2018-04-22T11:41:43.262Z,5.03
2018-04-22T11:44:10.834Z,3.43
2018-04-22T11:46:39.168Z,5.67
2018-04-22T11:49:06.712Z,5.10
2018-04-22T11:51:34.242Z,4.83
2018-04-22T11:54:02.564Z,5.47
2018-04-22T11:56:30.083Z,4.93
2018-04-22T11:58:57.622Z,5.83
2018-04-22T12:01:25.952Z,5.77
2018-04-22T12:03:53.483Z,5.10
2018-04-22T12:06:21.066Z,3.67
2018-04-22T12:08:48.595Z,4.67
2018-04-22T12:11:17.006Z,5.53
2018-04-22T12:13:44.547Z,4.43
2018-04-22T12:16:12.123Z,3.23
2018-04-22T12:18:39.910Z,3.80
2018-04-22T12:21:07.567Z,3.60
2018-04-22T12:23:35.467Z,4.73
2018-04-22T12:26:03.007Z,5.53
2018-04-22T12:28:30.605Z,3.83
2018-04-22T12:30:58.931Z,4.30
2018-04-22T12:33:26.484Z,10.63
2018-04-22T12:35:54.029Z,4.20
2018-04-22T12:38:21.564Z,4.40
2018-04-22T12:40:49.107Z,3.53
2018-04-22T12:43:17.391Z,2.87
2018-04-22T12:45:44.936Z,6.83
2018-04-22T12:48:13.227Z,4.00
2018-04-22T12:50:40.805Z,3.47
2018-04-22T12:53:08.342Z,4.07
2018-04-22T12:55:36.239Z,5.00
2018-04-22T12:58:03.768Z,4.63
2018-04-22T13:00:31.310Z,5.23
2018-04-22T13:02:59.621Z,5.10
2018-04-22T13:05:27.162Z,3.17
2018-04-22T13:07:54.724Z,5.63
2018-04-22T13:10:22.271Z,3.47
2018-04-22T13:12:50.607Z,3.97
2018-04-22T13:15:18.144Z,3.60
2018-04-22T13:17:45.710Z,4.90
2018-04-22T13:20:13.234Z,4.67
2018-04-22T13:22:41.559Z,2.90
2018-04-22T13:25:09.099Z,3.20
2018-04-22T13:27:36.659Z,3.80
2018-04-22T13:30:04.216Z,3.37
2018-04-22T13:32:31.765Z,3.30
2018-04-22T13:34:59.299Z,7.80
2018-04-22T13:37:27.590Z,3.57
2018-04-22T13:39:55.134Z,2.77
2018-04-22T13:42:23.437Z,2.83
2018-04-22T13:44:51.036Z,4.07
2018-04-22T13:47:18.567Z,4.27
2018-04-22T13:49:46.115Z,3.20
2018-04-22T13:52:13.662Z,4.17
2018-04-22T13:54:41.969Z,2.93
2018-04-22T13:57:09.513Z,2.80
2018-04-22T13:59:37.075Z,2.60
2018-04-22T14:02:04.625Z,3.50
2018-04-22T14:04:32.182Z,3.87
2018-04-22T14:06:59.733Z,5.17
2018-04-22T14:09:27.281Z,4.07
2018-04-22T14:11:54.855Z,4.17
2018-04-22T14:14:22.388Z,3.53
2018-04-22T14:16:49.934Z,3.70
2018-04-22T14:19:17.488Z,5.83
2018-04-22T14:21:45.044Z,4.40
2018-04-22T14:24:12.571Z,3.70
2018-04-22T14:26:40.118Z,4.00
2018-04-22T14:29:07.642Z,5.67
2018-04-22T14:31:35.939Z,4.63
2018-04-22T14:34:03.495Z,3.07
2018-04-22T14:36:31.802Z,4.40
2018-04-22T14:38:59.344Z,5.50
2018-04-22T14:41:27.331Z,4.83
2018-04-22T14:44:06.874Z,2.83
2018-04-22T14:46:34.444Z,6.90
2018-04-22T14:49:06.754Z,3.40
2018-04-22T14:51:35.116Z,3.20
2018-04-22T14:54:02.667Z,3.13
2018-04-22T14:56:30.206Z,4.80
2018-04-22T14:58:57.763Z,3.20
2018-04-22T15:01:25.331Z,3.40
2018-04-22T15:03:52.875Z,3.90
2018-04-22T15:06:20.403Z,3.90
2018-04-22T15:08:48.747Z,4.27
2018-04-22T15:11:16.294Z,3.87
2018-04-22T15:13:43.820Z,4.30
2018-04-22T15:16:11.384Z,4.00
2018-04-22T15:18:38.910Z,9.93
2018-04-22T15:21:07.237Z,4.43
2018-04-22T15:23:34.811Z,3.17
2018-04-22T15:26:02.379Z,3.53
2018-04-22T15:28:29.923Z,3.30
2018-04-22T15:30:57.548Z,3.57
2018-04-22T15:33:25.083Z,3.47
2018-04-22T15:35:53.403Z,3.83
2018-04-22T15:38:21.807Z,6.83
2018-04-22T15:40:49.345Z,5.67
2018-04-22T15:43:16.890Z,3.33
2018-04-22T15:45:44.713Z,4.23
2018-04-22T15:48:12.420Z,4.73
2018-04-22T15:50:40.120Z,3.93
2018-04-22T15:53:07.992Z,4.10
2018-04-22T15:55:35.676Z,3.57
2018-04-22T15:58:03.429Z,4.07
2018-04-22T16:00:30.972Z,2.90
2018-04-22T16:02:58.747Z,3.70
2018-04-22T16:05:26.589Z,4.30
2018-04-22T16:07:55.900Z,4.73
2018-04-22T16:10:23.689Z,3.47
2018-04-22T16:12:51.283Z,4.47
2018-04-22T16:15:19.607Z,5.57
2018-04-22T16:17:47.151Z,3.17
2018-04-22T16:20:14.699Z,4.30
2018-04-22T16:22:42.266Z,4.33
2018-04-22T16:25:09.815Z,4.17
2018-04-22T16:27:37.343Z,4.43
2018-04-22T16:30:05.656Z,4.30
2018-04-22T16:32:33.331Z,4.03
2018-04-22T16:35:00.871Z,2.97
2018-04-22T16:37:28.451Z,3.10
2018-04-22T16:39:55.977Z,4.00
2018-04-22T16:42:24.271Z,2.93
2018-04-22T16:44:51.815Z,2.83
2018-04-22T16:47:20.121Z,3.50
2018-04-22T16:49:47.665Z,3.50
2018-04-22T16:52:15.218Z,4.70
2018-04-22T16:54:42.770Z,2.70
2018-04-22T16:57:11.086Z,5.13
2018-04-22T16:59:38.623Z,5.93
2018-04-22T17:02:06.187Z,8.57
2018-04-22T17:04:33.874Z,3.70
2018-04-22T17:07:01.408Z,3.17
2018-04-22T17:09:28.967Z,4.60
2018-04-22T17:11:56.502Z,3.30
2018-04-22T17:14:24.822Z,3.30
2018-04-22T17:16:52.347Z,3.30
2018-04-22T17:19:20.689Z,3.90
2018-04-22T17:21:48.995Z,5.13
2018-04-22T17:24:16.519Z,4.30
2018-04-22T17:26:44.065Z,3.13
2018-04-22T17:29:11.609Z,4.43
2018-04-22T17:31:39.173Z,3.20
2018-04-22T17:34:06.717Z,4.97
2018-04-22T17:36:34.264Z,3.77
2018-04-22T17:39:02.588Z,9.33
2018-04-22T17:41:30.138Z,3.43
2018-04-22T17:43:57.670Z,3.60
2018-04-22T17:46:25.206Z,10.20
2018-04-22T17:48:52.758Z,3.63
2018-04-22T17:51:20.376Z,4.13
2018-04-22T17:53:47.925Z,3.23
2018-04-22T17:56:15.442Z,3.13
2018-04-22T17:58:43.012Z,4.10
2018-04-22T18:01:11.316Z,4.43
2018-04-22T18:03:38.866Z,3.50
2018-04-22T18:06:07.194Z,3.80
2018-04-22T18:08:34.719Z,4.27
2018-04-22T18:11:02.267Z,3.87
2018-04-22T18:13:30.580Z,3.33
2018-04-22T18:15:58.106Z,3.47
2018-04-22T18:18:25.642Z,4.10
2018-04-22T18:20:53.945Z,4.70
2018-04-22T18:23:21.506Z,5.23
2018-04-22T18:25:49.044Z,3.70
2018-04-22T18:28:17.371Z,5.13
2018-04-22T18:30:44.903Z,4.03
2018-04-22T18:33:12.481Z,3.83
2018-04-22T18:35:40.031Z,3.57
2018-04-22T18:38:07.583Z,6.60
2018-04-22T18:40:36.036Z,5.47
2018-04-22T18:43:04.392Z,3.50
2018-04-22T18:45:31.968Z,4.30
2018-04-22T18:47:59.676Z,4.27
2018-04-22T18:50:27.352Z,4.97
2018-04-22T18:52:54.896Z,7.13
2018-04-22T18:55:22.471Z,5.10
2018-04-22T18:57:50.013Z,5.00
2018-04-22T19:00:17.537Z,4.20
2018-04-22T19:02:45.865Z,5.00
2018-04-22T19:05:13.459Z,5.47
2018-04-22T19:07:41.063Z,5.17
2018-04-22T19:10:08.626Z,5.13
2018-04-22T19:12:36.939Z,5.30
2018-04-22T19:15:04.468Z,4.23
2018-04-22T19:17:32.009Z,8.13
2018-04-22T19:20:00.424Z,5.70
2018-04-22T19:22:27.985Z,4.97
2018-04-22T19:24:55.560Z,7.93
2018-04-22T19:27:23.123Z,4.87
2018-04-22T19:29:51.160Z,5.20
2018-04-22T19:32:18.739Z,5.57
2018-04-22T19:34:46.315Z,4.47
2018-04-22T19:37:15.075Z,10.00
2018-04-22T19:39:42.854Z,4.37
2018-04-22T19:42:10.400Z,8.00
2018-04-22T19:44:37.951Z,5.20
2018-04-22T19:47:05.499Z,6.97
2018-04-22T19:49:33.790Z,19.87
2018-04-22T19:52:01.361Z,16.10
2018-04-22T19:54:28.924Z,11.03
2018-04-22T19:56:56.516Z,14.93
2018-04-22T19:59:24.055Z,8.23
2018-04-22T20:01:51.778Z,12.10
2018-04-22T20:04:20.137Z,15.67
2018-04-22T20:06:48.777Z,8.60
2018-04-22T20:09:16.335Z,14.80
2018-04-22T20:11:43.898Z,10.20
2018-04-22T20:14:11.484Z,5.93
2018-04-22T20:16:40.559Z,5.63
2018-04-22T20:19:08.128Z,7.83
2018-04-22T20:21:35.674Z,5.70
2018-04-22T20:24:03.352Z,11.93
2018-04-22T20:26:30.920Z,12.60
2018-04-22T20:28:58.463Z,8.73
2018-04-22T20:31:26.132Z,10.67
2018-04-22T20:33:53.689Z,3.83
2018-04-22T20:36:21.263Z,6.27
2018-04-22T20:38:48.817Z,3.80
2018-04-22T20:41:16.398Z,4.40
2018-04-22T20:43:43.947Z,4.07
2018-04-22T20:46:11.501Z,4.83
2018-04-22T20:48:39.052Z,4.47
2018-04-22T20:51:06.616Z,5.20
2018-04-22T20:53:34.184Z,4.33
2018-04-22T20:56:01.749Z,3.77
2018-04-22T20:58:29.292Z,4.33
2018-04-22T21:00:56.856Z,5.20
2018-04-22T21:03:24.386Z,4.03
2018-04-22T21:05:51.938Z,5.50
2018-04-22T21:08:19.507Z,5.07
2018-04-22T21:10:47.037Z,4.50
2018-04-22T21:13:15.354Z,3.43
2018-04-22T21:15:42.899Z,4.27
2018-04-22T21:18:10.468Z,4.37
2018-04-22T21:20:38.012Z,5.10
2018-04-22T21:23:05.570Z,6.63
2018-04-22T21:25:33.196Z,4.13
2018-04-22T21:28:00.735Z,3.13
2018-04-22T21:30:28.313Z,3.23
2018-04-22T21:32:55.870Z,4.00
2018-04-22T21:35:23.427Z,3.83
2018-04-22T21:37:51.762Z,3.80
2018-04-22T21:40:19.328Z,2.70
2018-04-22T21:42:46.872Z,3.43
2018-04-22T21:45:15.219Z,4.17
2018-04-22T21:47:42.757Z,3.30
2018-04-22T21:50:10.324Z,5.10
2018-04-22T21:52:37.880Z,3.60
2018-04-22T21:55:05.400Z,4.90
2018-04-22T21:57:32.968Z,2.97
2018-04-22T22:00:00.515Z,3.93
2018-04-22T22:02:28.856Z,3.70
2018-04-22T22:04:56.388Z,3.37
2018-04-22T22:07:23.948Z,4.13
2018-04-22T22:09:51.480Z,2.87
2018-04-22T22:12:19.799Z,4.27
2018-04-22T22:14:47.348Z,3.30
2018-04-22T22:17:14.887Z,3.73
2018-04-22T22:19:42.427Z,4.30
2018-04-22T22:22:10.714Z,3.00
2018-04-22T22:24:38.263Z,3.30
2018-04-22T22:27:06.556Z,4.93
2018-04-22T22:29:34.136Z,3.20
2018-04-22T22:32:01.684Z,5.70
2018-04-22T22:34:29.231Z,2.70
2018-04-22T22:36:56.771Z,2.83
2018-04-22T22:39:25.088Z,3.07
2018-04-22T22:41:52.623Z,5.23
2018-04-22T22:44:20.201Z,2.73
2018-04-22T22:46:47.735Z,3.83
2018-04-22T22:49:16.063Z,3.03
2018-04-22T22:51:43.609Z,4.00
2018-04-22T22:54:11.277Z,3.40
2018-04-22T22:56:38.814Z,3.30
2018-04-22T22:59:06.380Z,3.97
2018-04-22T23:01:33.938Z,3.70
2018-04-22T23:04:01.475Z,6.17
2018-04-22T23:06:29.791Z,2.97
2018-04-22T23:08:57.335Z,3.90
2018-04-22T23:11:24.898Z,3.20
2018-04-22T23:13:52.433Z,4.20
2018-04-22T23:16:20.746Z,3.20
2018-04-22T23:18:48.296Z,3.80
2018-04-22T23:21:15.822Z,5.30
2018-04-22T23:23:44.136Z,4.87
2018-04-22T23:26:11.683Z,3.47
2018-04-22T23:28:39.248Z,3.60
2018-04-22T23:31:06.780Z,2.53
2018-04-22T23:33:35.147Z,2.80
2018-04-22T23:36:03.477Z,2.90
2018-04-22T23:38:31.023Z,2.90
2018-04-22T23:40:58.555Z,3.23
2018-04-22T23:43:26.874Z,2.40
2018-04-22T23:45:54.400Z,3.23
2018-04-22T23:48:22.724Z,2.57
2018-04-22T23:50:50.272Z,4.67
2018-04-22T23:53:17.815Z,2.60
2018-04-22T23:55:45.364Z,2.33
2018-04-22T23:58:12.932Z,2.20
